Time;durP1;ratioP1;P1;durP2;ratioP2;P2;SDS_P1;SDS_P2;PMS_P1;PMS_P2;Temp;Humidity;BMP_temperature;BMP_pressure;BME280_temperature;BME280_humidity;BME280_pressure;Samples;Min_cycle;Max_cycle;Signal;HPM_P1;HPM_P2
2022/01/11 00:01:13;;;;;;;41.57;20.10;;;;;;;-3.25;100.00;102187.66;10497979;28;20661;-62
2022/01/11 00:06:31;;;;;;;42.60;19.53;;;;;;;-3.22;100.00;102186.22;10497612;28;20236;-63
2022/01/11 00:11:38;;;;;;;40.93;19.00;;;;;;;-3.10;100.00;102179.50;10497651;28;20557;-63
2022/01/11 00:16:42;;;;;;;44.60;20.30;;;;;;;-3.18;100.00;102189.88;10520997;28;20306;-62
2022/01/11 00:21:48;;;;;;;43.67;19.77;;;;;;;-3.23;100.00;102189.56;10538595;28;20212;-62
2022/01/11 00:26:52;;;;;;;42.83;20.17;;;;;;;-3.30;100.00;102197.47;10539354;28;20231;-67
2022/01/11 00:32:00;;;;;;;40.10;19.73;;;;;;;-3.29;100.00;102208.50;10539240;28;20203;-63
2022/01/11 00:37:03;;;;;;;43.07;20.17;;;;;;;-3.32;100.00;102206.63;10538838;28;20238;-63
2022/01/11 00:42:09;;;;;;;41.80;19.23;;;;;;;-3.31;100.00;102215.13;10538947;28;20215;-66
2022/01/11 00:47:12;;;;;;;44.70;20.03;;;;;;;-3.35;100.00;102210.59;10538770;28;20215;-64
2022/01/11 00:52:17;;;;;;;38.03;19.00;;;;;;;-3.33;100.00;102203.97;10538751;28;20300;-62
2022/01/11 00:57:22;;;;;;;40.70;20.07;;;;;;;-3.44;100.00;102209.88;10149669;28;10000023;-63
2022/01/11 01:02:25;;;;;;;44.37;19.90;;;;;;;-3.42;100.00;102206.72;10499937;28;20219;-64
2022/01/11 01:07:29;;;;;;;44.07;20.03;;;;;;;-3.45;100.00;102206.47;10499807;28;20717;-64
2022/01/11 01:12:34;;;;;;;44.13;19.67;;;;;;;-3.52;100.00;102207.66;10499555;28;20212;-61
2022/01/11 01:17:37;;;;;;;50.30;20.77;;;;;;;-3.47;100.00;102209.66;10499640;28;20660;-60
2022/01/11 01:22:40;;;;;;;40.33;19.63;;;;;;;-3.62;100.00;102210.28;10499593;28;20215;-64
2022/01/11 01:27:45;;;;;;;44.80;21.87;;;;;;;-3.56;100.00;102217.47;10499358;28;20327;-65
2022/01/11 01:32:49;;;;;;;45.43;20.50;;;;;;;-3.52;100.00;102219.50;10505056;28;20262;-60
2022/01/11 01:37:52;;;;;;;43.27;20.13;;;;;;;-3.59;100.00;102223.19;10506671;28;20311;-65
2022/01/11 01:42:59;;;;;;;48.30;20.23;;;;;;;-3.60;100.00;102223.97;10506677;28;20684;-62
2022/01/11 01:48:03;;;;;;;47.00;21.10;;;;;;;-3.58;100.00;102234.22;10506431;28;20203;-64
2022/01/11 01:53:10;;;;;;;48.13;21.03;;;;;;;-3.54;100.00;102236.25;10506027;28;20655;-62
2022/01/11 01:58:16;;;;;;;44.93;20.87;;;;;;;-3.65;100.00;102244.69;10505976;28;20303;-67
2022/01/11 02:03:26;;;;;;;44.37;21.10;;;;;;;-3.66;100.00;102246.31;10505980;28;20673;-67
2022/01/11 02:08:29;;;;;;;51.17;20.60;;;;;;;-3.67;100.00;102254.72;10505817;28;20226;-62
2022/01/11 02:13:34;;;;;;;41.33;20.50;;;;;;;-3.68;100.00;102255.50;10505298;28;20230;-64
2022/01/11 02:18:37;;;;;;;41.13;20.37;;;;;;;-3.65;100.00;102247.22;10505510;28;20220;-66
2022/01/11 02:23:41;;;;;;;40.77;20.03;;;;;;;-3.71;100.00;102260.31;10505103;28;20204;-63
2022/01/11 02:28:45;;;;;;;41.33;19.87;;;;;;;-3.77;100.00;102258.97;10504987;28;20200;-65
2022/01/11 02:33:50;;;;;;;49.40;20.50;;;;;;;-3.73;100.00;102271.13;10504606;28;20192;-67
2022/01/11 02:38:56;;;;;;;44.87;20.20;;;;;;;-3.77;100.00;102266.56;10504377;28;20215;-62
2022/01/11 02:44:02;;;;;;;42.90;20.73;;;;;;;-3.78;100.00;102272.41;10503808;28;20629;-63
2022/01/11 02:49:05;;;;;;;42.00;20.77;;;;;;;-3.81;100.00;102287.38;10504298;28;20196;-63
2022/01/11 02:54:10;;;;;;;41.33;19.23;;;;;;;-3.92;100.00;102278.94;10503771;28;20273;-65
2022/01/11 02:59:13;;;;;;;41.47;19.53;;;;;;;-3.96;100.00;102278.59;10503492;28;20216;-68
2022/01/11 03:04:16;;;;;;;35.93;17.87;;;;;;;-4.02;100.00;102281.50;10503102;28;20307;-64
2022/01/11 03:09:21;;;;;;;36.50;19.13;;;;;;;-3.96;100.00;102289.63;10503278;28;20697;-67
2022/01/11 03:14:24;;;;;;;42.07;19.73;;;;;;;-4.00;100.00;102281.63;10502926;28;20199;-61
2022/01/11 03:19:28;;;;;;;39.27;17.73;;;;;;;-4.04;100.00;102287.25;10502682;28;20676;-63
2022/01/11 03:24:32;;;;;;;40.57;20.43;;;;;;;-4.00;100.00;102294.31;10502711;28;20560;-64
2022/01/11 03:29:37;;;;;;;45.43;19.97;;;;;;;-4.15;100.00;102291.47;10502394;28;20313;-67
2022/01/11 03:34:41;;;;;;;40.30;19.77;;;;;;;-4.03;100.00;102296.59;10502324;28;20517;-64
2022/01/11 03:39:46;;;;;;;44.27;20.63;;;;;;;-4.11;100.00;102300.19;10502173;28;20288;-64
2022/01/11 03:44:50;;;;;;;45.90;21.03;;;;;;;-4.21;100.00;102293.50;10501866;28;20533;-62
2022/01/11 03:49:53;;;;;;;43.30;21.77;;;;;;;-4.12;100.00;102296.78;10502070;28;20277;-63
2022/01/11 03:55:05;;;;;;;40.83;21.30;;;;;;;-4.13;100.00;102309.31;10500738;28;20218;-63
2022/01/11 04:00:12;;;;;;;42.67;20.83;;;;;;;-4.18;100.00;102311.50;10501505;28;20211;-64
2022/01/11 04:05:15;;;;;;;42.27;19.47;;;;;;;-4.13;100.00;102322.91;10500963;28;20232;-61
2022/01/11 04:10:20;;;;;;;42.93;19.63;;;;;;;-4.20;100.00;102319.75;10500979;28;20708;-66
2022/01/11 04:15:23;;;;;;;43.07;19.73;;;;;;;-4.24;100.00;102322.78;10500641;28;20522;-63
2022/01/11 04:20:26;;;;;;;44.37;20.73;;;;;;;-4.25;100.00;102334.59;10500662;28;20695;-64
2022/01/11 04:25:31;;;;;;;46.77;21.40;;;;;;;-4.39;100.00;102336.75;10501095;28;20222;-63
2022/01/11 04:30:36;;;;;;;47.90;21.53;;;;;;;-4.42;100.00;102345.03;10500711;28;20617;-66
2022/01/11 04:35:41;;;;;;;46.13;21.03;;;;;;;-4.33;100.00;102350.81;10500864;28;20232;-64
2022/01/11 04:40:46;;;;;;;68.23;29.93;;;;;;;-4.36;100.00;102349.66;10500865;28;20214;-68
2022/01/11 04:45:49;;;;;;;50.70;22.67;;;;;;;-4.39;100.00;102357.03;10500754;28;20199;-66
2022/01/11 04:50:53;;;;;;;44.23;20.67;;;;;;;-4.49;100.00;102360.47;10500181;28;20279;-65
2022/01/11 04:55:57;;;;;;;46.50;21.20;;;;;;;-4.57;100.00;102358.94;10499916;28;20541;-60
2022/01/11 05:01:01;;;;;;;43.27;22.13;;;;;;;-4.54;100.00;102359.22;10499999;28;20498;-64
2022/01/11 05:06:05;;;;;;;43.67;21.07;;;;;;;-4.52;100.00;102360.22;10503185;28;20292;-65
2022/01/11 05:11:10;;;;;;;44.53;22.03;;;;;;;-4.45;100.00;102357.41;10507950;28;20283;-62
2022/01/11 05:16:13;;;;;;;42.53;21.67;;;;;;;-4.47;100.00;102345.41;10507601;28;20228;-67
2022/01/11 05:21:16;;;;;;;46.07;20.73;;;;;;;-4.45;100.00;102341.34;10507332;28;20640;-63
2022/01/11 05:26:26;;;;;;;46.07;20.17;;;;;;;-4.41;100.00;102339.19;10507326;28;20216;-63
2022/01/11 05:31:29;;;;;;;50.33;21.77;;;;;;;-4.29;100.00;102351.94;10506842;28;20677;-67
2022/01/11 05:36:32;;;;;;;45.53;21.50;;;;;;;-4.28;100.00;102357.13;10194375;28;10001312;-62
2022/01/11 05:41:37;;;;;;;44.33;21.77;;;;;;;-4.29;100.00;102362.06;10545415;28;20235;-61
2022/01/11 05:46:40;;;;;;;51.90;22.47;;;;;;;-4.30;100.00;102367.91;10544949;28;20438;-65
2022/01/11 05:51:43;;;;;;;51.50;22.87;;;;;;;-4.18;100.00;102379.94;10544808;28;20215;-68
2022/01/11 05:56:50;;;;;;;45.23;20.77;;;;;;;-4.14;100.00;102383.59;10164655;28;10000563;-66
2022/01/11 06:01:53;;;;;;;47.80;22.93;;;;;;;-4.22;100.00;102390.59;10505335;28;20220;-64
2022/01/11 06:06:57;;;;;;;57.97;24.73;;;;;;;-4.30;100.00;102393.25;10505364;28;20562;-66
2022/01/11 06:12:01;;;;;;;54.47;25.00;;;;;;;-4.42;100.00;102398.22;10505282;28;20213;-67
2022/01/11 06:17:04;;;;;;;57.67;24.50;;;;;;;-4.43;100.00;102409.09;10504140;28;20224;-70
2022/01/11 06:22:08;;;;;;;54.90;26.67;;;;;;;-4.32;100.00;102420.13;10504975;28;20216;-65
2022/01/11 06:27:12;;;;;;;53.93;24.87;;;;;;;-4.37;100.00;102424.81;10504445;28;20354;-65
2022/01/11 06:32:16;;;;;;;59.50;26.33;;;;;;;-4.47;100.00;102434.06;10504299;28;20220;-66
2022/01/11 06:37:19;;;;;;;59.23;24.47;;;;;;;-4.47;100.00;102446.72;10504487;28;20246;-65
2022/01/11 06:42:23;;;;;;;51.67;23.27;;;;;;;-4.42;100.00;102461.56;10503874;28;20311;-64
2022/01/11 06:47:27;;;;;;;55.30;23.80;;;;;;;-4.46;100.00;102472.19;10503560;28;20224;-64
2022/01/11 06:52:30;;;;;;;55.23;23.60;;;;;;;-4.50;100.00;102480.28;10503475;28;20218;-65
2022/01/11 06:57:34;;;;;;;49.77;23.27;;;;;;;-4.76;100.00;102492.41;10503600;28;20323;-66
2022/01/11 07:02:38;;;;;;;58.80;24.87;;;;;;;-4.75;100.00;102492.56;10502755;28;20224;-62
2022/01/11 07:07:41;;;;;;;56.13;24.20;;;;;;;-4.73;100.00;102507.88;10503093;28;20238;-66
2022/01/11 07:12:48;;;;;;;47.50;23.10;;;;;;;-4.65;100.00;102503.44;10149851;27;10000133;-62
2022/01/11 07:17:51;;;;;;;47.90;21.33;;;;;;;-4.56;100.00;102506.75;10480866;28;20242;-64
2022/01/11 07:22:54;;;;;;;45.57;21.40;;;;;;;-4.49;100.00;102516.66;10499272;28;20218;-64
2022/01/11 07:28:00;;;;;;;42.97;20.53;;;;;;;-4.37;100.00;102513.50;10498274;28;20238;-61
2022/01/11 07:33:03;;;;;;;43.37;20.30;;;;;;;-4.24;100.00;102521.34;10498486;28;20228;-62
2022/01/11 07:38:07;;;;;;;45.07;20.80;;;;;;;-4.04;100.00;102528.06;10498122;28;20224;-63
2022/01/11 07:43:11;;;;;;;39.10;19.00;;;;;;;-3.92;100.00;102524.88;10498448;28;20315;-66
2022/01/11 07:48:14;;;;;;;39.80;17.83;;;;;;;-3.92;100.00;102524.88;10497385;28;20224;-62
2022/01/11 07:53:18;;;;;;;42.83;18.90;;;;;;;-3.80;100.00;102517.41;10498060;28;20220;-60
2022/01/11 07:58:22;;;;;;;38.20;17.67;;;;;;;-3.66;100.00;102519.41;10497197;28;20649;-62
2022/01/11 08:03:26;;;;;;;49.63;19.13;;;;;;;-3.61;100.00;102525.75;10497491;28;20729;-64
2022/01/11 08:08:29;;;;;;;44.73;19.20;;;;;;;-3.49;100.00;102525.81;10147260;28;10000102;-64
2022/01/11 08:13:33;;;;;;;46.53;19.20;;;;;;;-3.26;100.00;102523.47;10500812;28;20232;-63
2022/01/11 08:18:37;;;;;;;42.23;20.00;;;;;;;-3.23;100.00;102527.16;10497389;28;20334;-64
2022/01/11 08:23:40;;;;;;;40.47;18.93;;;;;;;-3.17;100.00;102532.69;10458450;28;20217;-64
2022/01/11 08:28:45;;;;;;;46.33;19.90;;;;;;;-3.06;100.00;102528.47;10459859;28;20554;-63
2022/01/11 08:33:48;;;;;;;44.57;18.73;;;;;;;-2.83;100.00;102538.78;10500257;28;20311;-62
2022/01/11 08:38:51;;;;;;;50.57;19.63;;;;;;;-2.90;100.00;102541.63;10499250;28;20219;-68
2022/01/11 08:43:56;;;;;;;44.40;20.27;;;;;;;-2.93;100.00;102539.69;10508524;28;20208;-61
2022/01/11 08:49:00;;;;;;;46.20;18.27;;;;;;;-2.66;100.00;102546.91;10507765;28;20525;-63
2022/01/11 08:54:03;;;;;;;40.50;17.37;;;;;;;-2.60;100.00;102549.06;10508232;28;20238;-63
2022/01/11 08:59:08;;;;;;;42.83;19.83;;;;;;;-2.66;100.00;102548.59;10504166;28;20235;-62
2022/01/11 09:04:12;;;;;;;37.63;19.13;;;;;;;-2.64;100.00;102545.38;10505019;28;20228;-64
2022/01/11 09:09:15;;;;;;;48.67;18.77;;;;;;;-2.57;100.00;102546.78;10505767;28;20230;-63
2022/01/11 09:14:19;;;;;;;46.50;19.20;;;;;;;-2.44;100.00;102546.94;10507317;28;20207;-62
2022/01/11 09:19:23;;;;;;;51.07;21.43;;;;;;;-2.29;100.00;102537.03;10506480;28;20572;-64
2022/01/11 09:24:29;;;;;;;51.53;21.70;;;;;;;-2.18;100.00;102537.09;10535000;28;20212;-64
2022/01/11 09:29:36;;;;;;;49.73;21.37;;;;;;;-2.29;100.00;102535.38;10542854;28;20295;-64
2022/01/11 09:34:40;;;;;;;47.23;21.37;;;;;;;-2.11;100.00;102531.69;10461871;28;20699;-64
2022/01/11 09:39:43;;;;;;;50.03;21.53;;;;;;;-2.10;100.00;102536.00;10461766;28;20692;-65
2022/01/11 09:44:48;;;;;;;46.20;21.37;;;;;;;-2.12;100.00;102536.66;10461509;28;20217;-64
2022/01/11 09:49:51;;;;;;;46.93;21.57;;;;;;;-2.01;100.00;102536.69;10461501;28;20217;-64
2022/01/11 09:54:55;;;;;;;47.20;20.80;;;;;;;-2.06;100.00;102537.09;10459719;28;20217;-65
2022/01/11 10:00:00;;;;;;;44.43;20.83;;;;;;;-1.91;100.00;102522.97;10460519;28;20224;-63
2022/01/11 10:05:07;;;;;;;50.10;20.90;;;;;;;-1.90;100.00;102532.41;10460532;28;20660;-65
2022/01/11 10:10:16;;;;;;;42.33;19.50;;;;;;;-1.85;100.00;102528.53;10461210;28;20303;-63
2022/01/11 10:15:28;;;;;;;45.67;19.77;;;;;;;-1.90;100.00;102530.75;10460425;28;20235;-62
2022/01/11 10:20:38;;;;;;;47.10;20.73;;;;;;;-1.86;100.00;102535.28;10463237;28;20239;-64
2022/01/11 10:25:49;;;;;;;51.57;20.47;;;;;;;-1.95;100.00;102531.19;10542831;28;20553;-63
2022/01/11 10:30:57;;;;;;;42.77;20.33;;;;;;;-1.75;100.00;102531.88;10533033;28;20533;-63
2022/01/11 10:36:00;;;;;;;46.57;21.27;;;;;;;-1.66;100.00;102532.56;10460511;28;20228;-69
2022/01/11 10:41:03;;;;;;;47.93;20.13;;;;;;;-1.55;100.00;102525.69;10459252;28;20232;-62
2022/01/11 10:46:08;;;;;;;47.30;20.30;;;;;;;-1.48;100.00;102530.44;10459350;28;20213;-65
2022/01/11 10:51:15;;;;;;;47.00;20.00;;;;;;;-1.53;100.00;102536.84;10459384;28;20558;-66
2022/01/11 10:56:19;;;;;;;45.03;20.70;;;;;;;-1.40;100.00;102544.63;10458739;28;20304;-66
2022/01/11 11:01:31;;;;;;;56.20;25.13;;;;;;;-1.33;100.00;102537.53;10458770;28;20303;-64
2022/01/11 11:06:36;;;;;;;46.93;22.87;;;;;;;-1.29;100.00;102529.34;10457689;28;20251;-64
2022/01/11 11:11:39;;;;;;;49.97;22.47;;;;;;;-1.14;100.00;102542.31;10458115;28;20220;-64
2022/01/11 11:16:44;;;;;;;63.73;22.10;;;;;;;-1.29;100.00;102543.72;10458162;28;20230;-63
2022/01/11 11:21:48;;;;;;;55.20;22.70;;;;;;;-1.15;100.00;102540.50;10461878;28;20696;-63
2022/01/11 11:26:52;;;;;;;47.63;19.60;;;;;;;-1.16;100.00;102537.06;10457560;28;20217;-65
2022/01/11 11:31:59;;;;;;;46.23;20.83;;;;;;;-1.16;100.00;102538.75;10457785;28;20221;-62
2022/01/11 11:37:07;;;;;;;50.93;20.83;;;;;;;-1.05;100.00;102540.38;10457108;28;20670;-62
2022/01/11 11:42:16;;;;;;;52.47;22.30;;;;;;;-1.04;100.00;102541.28;10496051;28;20230;-63
2022/01/11 11:47:32;;;;;;;49.03;22.63;;;;;;;-0.96;100.00;102546.13;10488419;28;20212;-64
2022/01/11 11:52:42;;;;;;;48.77;21.23;;;;;;;-1.00;100.00;102546.69;10476440;28;20701;-62
2022/01/11 11:57:47;;;;;;;45.97;21.67;;;;;;;-1.12;100.00;102548.38;10498084;28;20222;-63
2022/01/11 12:02:54;;;;;;;47.70;18.80;;;;;;;-0.99;100.00;102547.59;10497022;28;20247;-62
2022/01/11 12:07:58;;;;;;;46.20;21.47;;;;;;;-0.87;100.00;102544.25;10497840;28;20216;-69
2022/01/11 12:13:02;;;;;;;47.87;21.03;;;;;;;-0.89;100.00;102540.69;10497170;28;20220;-66
2022/01/11 12:18:18;;;;;;;43.57;19.17;;;;;;;-0.91;100.00;102543.91;10496628;28;20349;-68
2022/01/11 12:23:57;;;;;;;52.47;22.30;;;;;;;-0.87;100.00;102543.34;10517848;28;20211;-64
2022/01/11 12:29:28;;;;;;;43.00;19.73;;;;;;;-0.87;100.00;102536.59;10536189;28;20296;-66
2022/01/11 12:34:56;;;;;;;50.63;18.77;;;;;;;-0.86;100.00;102540.91;10476351;28;20236;-62
2022/01/11 12:40:12;;;;;;;54.83;21.17;;;;;;;-0.87;100.00;102549.34;10455706;28;20303;-61
2022/01/11 12:50:56;;;;;;;50.53;20.70;;;;;;;-0.98;100.00;102557.03;10455321;28;20224;-66
2022/01/11 12:55:59;;;;;;;58.40;24.13;;;;;;;-0.97;100.00;102552.03;10455201;28;20217;-62
2022/01/11 13:01:15;;;;;;;52.45;23.70;;;;;;;-1.07;100.00;102554.66;10286210;28;10001245;-64
2022/01/11 13:06:20;;;;;;;47.67;20.50;;;;;;;-1.00;100.00;102551.78;10498493;28;20560;-63
2022/01/11 13:11:25;;;;;;;41.73;20.60;;;;;;;-1.00;100.00;102549.22;10499120;28;20658;-63
2022/01/11 13:16:29;;;;;;;48.83;21.13;;;;;;;-1.03;100.00;102541.38;10499513;28;20234;-64
2022/01/11 13:21:33;;;;;;;45.33;21.37;;;;;;;-0.98;100.00;102544.28;10499041;28;20642;-64
2022/01/11 13:26:36;;;;;;;43.60;19.43;;;;;;;-0.96;100.00;102537.59;10501288;28;20701;-64
2022/01/11 13:31:40;;;;;;;43.43;19.53;;;;;;;-0.82;100.00;102529.25;10506746;28;20224;-63
2022/01/11 13:36:47;;;;;;;37.60;18.40;;;;;;;-0.85;100.00;102529.94;10505989;28;20216;-65
2022/01/11 13:41:54;;;;;;;41.37;17.47;;;;;;;-0.83;100.00;102525.84;10506316;28;20646;-65
2022/01/11 13:46:59;;;;;;;38.07;17.10;;;;;;;-0.75;100.00;102528.91;10505991;28;20251;-63
2022/01/11 13:52:08;;;;;;;31.07;15.47;;;;;;;-0.88;100.00;102522.06;10505660;28;20318;-63
2022/01/11 13:57:15;;;;;;;37.73;17.17;;;;;;;-0.70;100.00;102520.81;10464384;28;20223;-65
2022/01/11 14:02:20;;;;;;;42.87;21.67;;;;;;;-0.73;100.00;102524.81;10461724;28;20429;-65
2022/01/11 14:07:27;;;;;;;41.53;17.87;;;;;;;-0.70;100.00;102530.13;10464017;28;20232;-63
2022/01/11 14:12:41;;;;;;;33.43;16.07;;;;;;;-0.79;100.00;102532.91;10463354;28;20220;-63
2022/01/11 14:17:57;;;;;;;35.07;15.97;;;;;;;-0.83;100.00;102527.50;10463440;28;20320;-65
2022/01/11 14:23:09;;;;;;;35.53;16.40;;;;;;;-0.61;100.00;102526.56;10463472;28;20674;-70
2022/01/11 14:28:14;;;;;;;34.97;15.87;;;;;;;-0.62;100.00;102521.34;10463164;28;20217;-65
2022/01/11 14:33:27;;;;;;;37.03;15.73;;;;;;;-0.57;100.00;102525.97;10462983;28;20296;-66
2022/01/11 14:38:44;;;;;;;31.97;16.00;;;;;;;-0.64;100.00;102536.53;10461952;28;20228;-61
2022/01/11 14:43:57;;;;;;;43.57;15.97;;;;;;;-0.69;100.00;102544.66;10462774;28;20229;-62
2022/01/11 14:49:02;;;;;;;24.93;11.87;;;;;;;-0.67;100.00;102553.25;10462479;28;20231;-66
2022/01/11 14:54:11;;;;;;;34.57;15.10;;;;;;;-0.55;100.00;102555.00;10462657;28;20229;-65
2022/01/11 14:59:17;;;;;;;36.00;16.70;;;;;;;-0.43;100.00;102560.09;10462000;28;20247;-69
2022/01/11 15:04:24;;;;;;;40.03;17.13;;;;;;;-0.46;100.00;102552.22;10462389;28;20237;-64
2022/01/11 15:09:32;;;;;;;34.67;17.93;;;;;;;-0.46;100.00;102557.31;10461711;28;20235;-66
2022/01/11 15:14:38;;;;;;;47.87;19.93;;;;;;;-0.44;100.00;102573.59;10461322;28;20247;-66
2022/01/11 15:19:42;;;;;;;46.57;22.77;;;;;;;-0.50;100.00;102563.00;10460662;28;20662;-66
2022/01/11 15:24:47;;;;;;;46.67;21.53;;;;;;;-0.53;100.00;102575.50;10460897;28;20212;-67
2022/01/11 15:29:50;;;;;;;49.33;21.47;;;;;;;-0.63;100.00;102570.56;10460518;28;20246;-68
2022/01/11 15:34:54;;;;;;;42.90;20.40;;;;;;;-0.67;100.00;102571.09;10460321;28;20242;-66
2022/01/11 15:39:59;;;;;;;44.47;21.47;;;;;;;-0.68;100.00;102577.91;10459709;28;20247;-66
2022/01/11 15:45:02;;;;;;;46.17;20.07;;;;;;;-0.73;100.00;102576.69;10460013;28;20217;-66
2022/01/11 15:50:09;;;;;;;55.17;21.40;;;;;;;-0.61;100.00;102577.53;10460137;28;20216;-66
2022/01/11 15:55:13;;;;;;;42.43;20.30;;;;;;;-0.60;100.00;102579.31;10495281;28;20226;-63
2022/01/11 16:00:17;;;;;;;82.93;37.37;;;;;;;-0.59;100.00;102577.66;10501298;28;20238;-67
2022/01/11 16:05:20;;;;;;;44.37;18.37;;;;;;;-0.58;100.00;102579.41;10500378;28;20228;-64
2022/01/11 16:10:25;;;;;;;41.43;17.60;;;;;;;-0.78;100.00;102585.69;10501049;28;20555;-63
2022/01/11 16:15:28;;;;;;;37.77;16.57;;;;;;;-0.80;100.00;102583.78;10500063;28;20535;-66
2022/01/11 16:20:33;;;;;;;36.17;15.63;;;;;;;-0.80;100.00;102577.03;10500392;28;20251;-65
2022/01/11 16:25:38;;;;;;;30.37;12.93;;;;;;;-0.73;100.00;102581.78;10499226;28;20264;-65
2022/01/11 16:30:46;;;;;;;24.33;12.23;;;;;;;-0.81;100.00;102582.03;10500350;28;20232;-65
2022/01/11 16:35:51;;;;;;;28.67;13.13;;;;;;;-0.68;100.00;102584.66;10499655;28;20220;-65
2022/01/11 16:46:16;;;;;;;25.83;11.70;;;;;;;-0.74;97.87;102574.03;10498158;28;20664;-62
2022/01/11 16:51:20;;;;;;;24.17;11.27;;;;;;;-0.68;98.49;102574.44;10182806;27;10000359;-64
2022/01/11 16:56:25;;;;;;;29.70;11.30;;;;;;;-0.73;98.36;102580.91;10511345;28;20308;-64
2022/01/11 17:01:28;;;;;;;25.37;12.70;;;;;;;-0.50;99.91;102588.50;10458038;28;20228;-64
2022/01/11 17:06:32;;;;;;;21.47;10.73;;;;;;;-0.64;96.72;102586.66;10463687;28;20240;-65
2022/01/11 17:11:37;;;;;;;20.57;10.43;;;;;;;-0.73;96.93;102588.53;10463465;28;20703;-63
2022/01/11 17:16:40;;;;;;;24.43;10.53;;;;;;;-0.81;96.90;102587.13;10462882;28;20291;-64
2022/01/11 17:21:44;;;;;;;26.20;12.07;;;;;;;-0.68;98.14;102587.19;10462674;28;20731;-68
2022/01/11 17:27:09;;;;;;;17.40;9.33;;;;;;;-0.65;94.66;102588.28;10463196;28;20238;-68
2022/01/11 17:32:12;;;;;;;16.47;7.90;;;;;;;-0.79;93.00;102588.97;10462978;28;20220;-64
2022/01/11 17:37:18;;;;;;;16.33;8.37;;;;;;;-0.78;92.18;102600.97;10462340;28;20282;-63
2022/01/11 17:42:22;;;;;;;18.37;8.10;;;;;;;-0.78;91.15;102595.88;10461896;28;20225;-66
2022/01/11 17:47:29;;;;;;;19.47;9.37;;;;;;;-0.73;92.08;102599.63;10473810;28;20215;-66
2022/01/11 17:52:33;;;;;;;19.47;8.60;;;;;;;-0.71;91.60;102612.47;10544995;28;20219;-62
2022/01/11 17:57:38;;;;;;;19.30;9.67;;;;;;;-0.78;90.08;102615.38;10513003;28;20252;-64
2022/01/11 18:02:41;;;;;;;18.67;9.97;;;;;;;-0.86;91.49;102621.59;10461010;28;20231;-64
2022/01/11 18:07:45;;;;;;;20.43;9.30;;;;;;;-0.75;93.18;102621.56;10461273;28;20548;-66
2022/01/11 18:12:52;;;;;;;22.97;10.27;;;;;;;-0.80;90.86;102616.91;10459585;28;20311;-64
2022/01/11 18:17:55;;;;;;;20.57;8.93;;;;;;;-0.90;90.56;102625.59;10460744;28;20319;-62
2022/01/11 18:22:59;;;;;;;18.60;8.30;;;;;;;-0.84;90.53;102636.19;10460606;28;20676;-63
2022/01/11 18:28:03;;;;;;;17.40;7.43;;;;;;;-0.77;90.78;102633.31;10460119;28;20634;-64
2022/01/11 18:33:07;;;;;;;13.03;6.60;;;;;;;-0.72;89.07;102629.44;10460347;28;20311;-63
2022/01/11 18:38:11;;;;;;;14.73;7.10;;;;;;;-0.69;87.66;102627.09;10459878;28;20300;-64
2022/01/11 18:43:15;;;;;;;17.80;8.53;;;;;;;-0.67;87.00;102625.53;10459513;28;20228;-63
2022/01/11 18:48:18;;;;;;;13.93;6.43;;;;;;;-0.66;86.36;102628.97;10485433;28;20372;-64
2022/01/11 18:53:22;;;;;;;16.87;7.37;;;;;;;-0.72;84.46;102621.78;10542416;28;20428;-65
2022/01/11 18:58:26;;;;;;;22.57;8.23;;;;;;;-0.77;85.30;102619.69;10512519;28;20561;-62
2022/01/11 19:03:30;;;;;;;18.70;8.13;;;;;;;-0.78;84.44;102628.13;10458942;28;20239;-63
2022/01/11 19:08:33;;;;;;;17.17;7.80;;;;;;;-0.85;85.10;102620.81;10458605;28;20300;-65
2022/01/11 19:13:37;;;;;;;333.33;141.20;;;;;;;-0.76;84.36;102622.31;10458372;28;20554;-65
2022/01/11 19:18:41;;;;;;;19.70;8.27;;;;;;;-0.71;85.68;102623.56;10458589;28;20227;-64
2022/01/11 19:23:44;;;;;;;17.80;8.37;;;;;;;-0.68;85.07;102613.59;10457534;28;20224;-65
2022/01/11 19:28:49;;;;;;;17.80;7.53;;;;;;;-0.56;85.25;102622.09;10461340;28;20653;-65
2022/01/11 19:33:53;;;;;;;21.60;8.73;;;;;;;-0.53;85.07;102624.84;10458030;28;20221;-64
2022/01/11 19:38:56;;;;;;;16.83;7.50;;;;;;;-0.53;84.85;102627.41;10457357;28;20304;-66
2022/01/11 19:44:00;;;;;;;16.57;8.10;;;;;;;-0.52;83.96;102629.16;10457088;28;20251;-65
2022/01/11 19:49:04;;;;;;;19.73;8.40;;;;;;;-0.53;84.10;102637.59;10456919;28;20549;-66
2022/01/11 19:54:08;;;;;;;19.23;7.90;;;;;;;-0.61;84.71;102637.84;10471448;28;20187;-63
2022/01/11 19:59:13;;;;;;;12.97;6.47;;;;;;;-0.67;82.24;102634.84;10540253;28;20215;-64
2022/01/11 20:04:17;;;;;;;15.13;6.40;;;;;;;-0.63;82.52;102627.53;10539760;28;20227;-66
2022/01/11 20:09:20;;;;;;;16.50;7.47;;;;;;;-0.68;82.27;102627.97;10539766;28;20562;-66
2022/01/11 20:14:25;;;;;;;14.67;6.77;;;;;;;-0.59;82.07;102631.19;10539887;28;20204;-63
2022/01/11 20:19:28;;;;;;;16.37;7.20;;;;;;;-0.62;82.57;102629.28;10539301;28;20597;-65
2022/01/11 20:29:56;;;;;;;14.17;6.40;;;;;;;-0.57;81.46;102633.06;10541808;28;20329;-66
2022/01/11 20:34:59;;;;;;;24.40;7.27;;;;;;;-0.67;80.05;102629.75;10541644;28;20210;-68
2022/01/11 20:40:06;;;;;;;14.73;6.93;;;;;;;-0.66;80.37;102624.78;10542409;28;20219;-66
2022/01/11 20:45:11;;;;;;;15.50;6.30;;;;;;;-0.69;79.34;102628.78;10541689;28;20326;-68
2022/01/11 20:50:31;;;;;;;14.07;6.93;;;;;;;-0.83;78.93;102638.00;10541977;28;20210;-67
2022/01/11 20:55:34;;;;;;;13.23;6.33;;;;;;;-0.74;78.99;102653.06;10542175;28;20229;-64
2022/01/11 21:00:39;;;;;;;13.53;7.50;;;;;;;-0.83;79.30;102645.63;10541946;28;20274;-67
2022/01/11 21:05:45;;;;;;;15.07;7.57;;;;;;;-0.83;79.58;102652.38;10541675;28;20219;-65
2022/01/11 21:10:48;;;;;;;19.23;6.90;;;;;;;-0.74;80.97;102659.00;10541859;28;20198;-63
2022/01/11 21:16:15;;;;;;;16.93;7.13;;;;;;;-0.75;79.11;102659.81;10540896;28;20206;-63
2022/01/11 21:21:36;;;;;;;18.93;8.07;;;;;;;-0.74;79.84;102664.13;10538367;28;20227;-64
2022/01/11 21:26:39;;;;;;;19.67;8.53;;;;;;;-0.72;80.22;102649.81;10177830;27;9999772;-67
2022/01/11 21:31:44;;;;;;;16.60;8.50;;;;;;;-0.76;80.37;102649.50;10496223;28;20279;-60
2022/01/11 21:36:47;;;;;;;18.03;7.97;;;;;;;-0.71;81.28;102648.16;10496508;28;20622;-63
2022/01/11 21:41:51;;;;;;;14.17;7.13;;;;;;;-0.66;81.52;102642.63;10496080;28;20518;-64
2022/01/11 21:46:55;;;;;;;18.40;8.27;;;;;;;-0.65;80.95;102649.47;10497423;28;20207;-66
2022/01/11 21:52:00;;;;;;;15.17;7.93;;;;;;;-0.65;80.35;102646.94;10503467;28;20277;-66
2022/01/11 21:57:05;;;;;;;21.30;9.33;;;;;;;-0.76;80.83;102650.38;10503461;28;20192;-64
2022/01/11 22:02:10;;;;;;;20.30;9.00;;;;;;;-0.76;80.39;102644.41;10502878;28;20532;-66
2022/01/11 22:07:13;;;;;;;22.57;8.50;;;;;;;-0.82;81.33;102649.94;10502677;28;20234;-62
2022/01/11 22:12:16;;;;;;;19.60;9.70;;;;;;;-0.75;81.85;102638.53;10502733;28;20520;-63
2022/01/11 22:17:28;;;;;;;18.17;8.90;;;;;;;-0.90;80.24;102645.06;10502333;28;20200;-62
2022/01/11 22:22:31;;;;;;;21.17;8.90;;;;;;;-0.94;79.26;102650.72;10502018;28;20687;-66
2022/01/11 22:27:35;;;;;;;19.27;8.30;;;;;;;-0.95;79.92;102651.50;10502321;28;20243;-65
2022/01/11 22:32:40;;;;;;;16.80;8.87;;;;;;;-0.82;81.64;102644.84;10501696;28;20607;-65
2022/01/11 22:37:44;;;;;;;18.63;8.97;;;;;;;-0.84;80.28;102645.50;10501535;28;20216;-62
2022/01/11 22:42:48;;;;;;;19.87;9.73;;;;;;;-0.86;81.10;102641.97;10501492;28;20212;-63
2022/01/11 22:47:53;;;;;;;21.77;9.40;;;;;;;-0.88;80.73;102641.84;10501454;28;20302;-63
2022/01/11 22:52:56;;;;;;;21.07;8.10;;;;;;;-0.91;80.62;102643.28;10500815;28;20227;-67
2022/01/11 22:57:59;;;;;;;12.77;6.60;;;;;;;-1.02;79.41;102644.19;10500265;28;20547;-63